Paradise, Canada
Current Conditions -  °F | °C
As of 10:00 AM on Saturday 25 Oct 2014 (Local Time) from CYQX Reporting Station
Light Rain Light Rain  
Wind Chill:   Ceiling: 400
Heat Index:   Visibility: 1.7mi
Dew Point:   Wind: 18mph
Humidity: 100%   Direction: 50°NE
Pressure: 29.59"   Gusts: 28mph
Location:  49.37°N, 55.33°W
Report Text: CYQX 251200Z 05016G24KT 1 3/4SM -RA BR BKN004 OVC009 05/05 A2959 RMK FG3SF4SF1 SLP023
Loading
Personal Weather Stations






























Interactive Weather Map
Tropical Storm Tracking
New forecast layout! Learn more

10-Day Weather Forecast

Advertisements
Track Severe Weather on mobile